createdAt,value
2019-01-20T00:01:01.796Z,16.20
2019-01-20T00:03:30.360Z,13.90
2019-01-20T00:05:58.732Z,14.25
2019-01-20T00:08:27.193Z,15.93
2019-01-20T00:10:55.561Z,15.20
2019-01-20T00:13:24.053Z,14.40
2019-01-20T00:15:52.837Z,14.30
2019-01-20T00:18:21.298Z,14.00
2019-01-20T00:20:49.872Z,18.30
2019-01-20T00:23:18.421Z,18.52
2019-01-20T00:25:48.593Z,17.98
2019-01-20T00:28:18.287Z,18.05
2019-01-20T00:30:46.669Z,29.32
2019-01-20T00:33:16.129Z,27.67
2019-01-20T00:35:44.596Z,30.62
2019-01-20T00:38:13.173Z,30.35
2019-01-20T00:40:41.645Z,23.02
2019-01-20T00:43:10.101Z,19.12
2019-01-20T00:45:38.965Z,18.15
2019-01-20T00:48:07.338Z,22.58
2019-01-20T00:50:35.808Z,23.73
2019-01-20T00:53:04.288Z,21.05
2019-01-20T00:55:32.756Z,18.80
2019-01-20T00:58:01.513Z,19.35
2019-01-20T01:00:32.330Z,17.10
2019-01-20T01:03:00.852Z,17.35
2019-01-20T01:05:29.439Z,19.40
2019-01-20T01:07:58.015Z,16.48
2019-01-20T01:10:26.474Z,15.58
2019-01-20T01:12:55.054Z,18.98
2019-01-20T01:15:23.465Z,18.23
2019-01-20T01:17:51.972Z,15.28
2019-01-20T01:20:20.436Z,16.05
2019-01-20T01:22:49.904Z,15.80
2019-01-20T01:25:18.281Z,15.50
2019-01-20T01:27:46.950Z,17.70
2019-01-20T01:30:21.320Z,16.12
2019-01-20T01:32:49.696Z,15.90
2019-01-20T01:35:18.154Z,17.35
2019-01-20T01:37:46.524Z,16.75
2019-01-20T01:40:16.488Z,18.42
2019-01-20T01:42:45.011Z,20.20
2019-01-20T01:45:16.619Z,17.90
2019-01-20T01:47:45.112Z,19.92
2019-01-20T01:50:15.326Z,14.80
2019-01-20T01:52:43.853Z,20.97
2019-01-20T01:55:12.481Z,17.82
2019-01-20T01:57:40.946Z,19.25
2019-01-20T02:00:17.393Z,18.48
2019-01-20T02:02:45.876Z,14.50
2019-01-20T02:05:14.989Z,17.42
2019-01-20T02:07:44.470Z,16.93
2019-01-20T02:10:16.458Z,16.70
2019-01-20T02:12:46.333Z,15.38
2019-01-20T02:15:16.824Z,16.73
2019-01-20T02:17:45.200Z,15.75
2019-01-20T02:20:17.489Z,14.75
2019-01-20T02:22:45.955Z,13.03
2019-01-20T02:25:14.940Z,13.22
2019-01-20T02:27:43.442Z,15.30
2019-01-20T02:30:19.301Z,13.60
2019-01-20T02:32:47.960Z,15.15
2019-01-20T02:35:16.548Z,12.30
2019-01-20T02:37:44.920Z,14.43
2019-01-20T02:40:14.832Z,16.17
2019-01-20T02:42:43.204Z,14.98
2019-01-20T02:45:12.701Z,13.83
2019-01-20T02:47:41.172Z,14.63
2019-01-20T02:50:12.144Z,14.43
2019-01-20T02:52:40.571Z,18.15
2019-01-20T02:55:09.766Z,16.10
2019-01-20T02:57:39.935Z,14.15
2019-01-20T03:00:24.988Z,14.90
2019-01-20T03:02:55.393Z,14.73
2019-01-20T03:05:24.455Z,15.25
2019-01-20T03:07:52.830Z,18.05
2019-01-20T03:10:21.277Z,18.60
2019-01-20T03:12:51.440Z,15.90
2019-01-20T03:15:19.854Z,17.25
2019-01-20T03:17:48.347Z,15.88
2019-01-20T03:20:19.822Z,17.37
2019-01-20T03:22:48.428Z,15.28
2019-01-20T03:25:17.573Z,15.58
2019-01-20T03:27:46.036Z,16.27
2019-01-20T03:30:20.010Z,18.02
2019-01-20T03:32:48.658Z,13.85
2019-01-20T03:35:24.803Z,15.83
2019-01-20T03:37:53.254Z,16.75
2019-01-20T03:40:21.939Z,17.40
2019-01-20T03:42:50.505Z,14.80
2019-01-20T03:45:19.653Z,14.53
2019-01-20T03:47:48.393Z,18.80
2019-01-20T03:50:16.899Z,16.75
2019-01-20T03:52:45.506Z,17.27
2019-01-20T03:55:15.675Z,15.75
2019-01-20T03:57:44.150Z,16.15
2019-01-20T04:00:28.911Z,15.75
2019-01-20T04:03:02.008Z,17.30
2019-01-20T04:05:30.490Z,17.07
2019-01-20T04:07:58.833Z,15.30
2019-01-20T04:10:27.207Z,17.12
2019-01-20T04:12:55.765Z,15.23
2019-01-20T04:15:24.836Z,15.95
2019-01-20T04:17:53.175Z,15.30
2019-01-20T04:20:21.989Z,16.95
2019-01-20T04:22:50.325Z,16.97
2019-01-20T04:25:20.595Z,16.10
2019-01-20T04:27:50.750Z,18.30
2019-01-20T04:30:19.732Z,16.70
2019-01-20T04:32:48.373Z,19.95
2019-01-20T04:35:16.778Z,17.60
2019-01-20T04:37:45.231Z,16.75
2019-01-20T04:40:18.264Z,21.50
2019-01-20T04:42:46.872Z,16.23
2019-01-20T04:45:15.421Z,17.77
2019-01-20T04:47:43.911Z,18.10
2019-01-20T04:50:15.518Z,17.45
2019-01-20T04:52:43.878Z,15.88
2019-01-20T04:55:13.102Z,19.73
2019-01-20T04:57:42.709Z,17.30
2019-01-20T05:00:18.944Z,17.30
2019-01-20T05:02:52.720Z,15.45
2019-01-20T05:05:21.278Z,18.07
2019-01-20T05:07:49.751Z,17.77
2019-01-20T05:10:18.169Z,18.77
2019-01-20T05:12:46.821Z,21.75
2019-01-20T05:15:18.474Z,18.25
2019-01-20T05:17:46.951Z,18.57
2019-01-20T05:20:16.187Z,18.77
2019-01-20T05:22:44.521Z,19.90
2019-01-20T05:25:13.436Z,18.62
2019-01-20T05:27:42.786Z,24.15
2019-01-20T05:30:14.998Z,16.90
2019-01-20T05:32:43.445Z,19.40
2019-01-20T05:35:12.061Z,18.20
2019-01-20T05:37:40.442Z,20.57
2019-01-20T05:40:11.062Z,20.12
2019-01-20T05:42:46.157Z,16.65
2019-01-20T05:45:13.725Z,16.93
2019-01-20T05:47:42.995Z,18.57
2019-01-20T05:50:12.423Z,16.73
2019-01-20T05:52:40.797Z,18.23
2019-01-20T05:55:10.060Z,19.60
2019-01-20T05:57:38.419Z,17.70
2019-01-20T06:00:29.960Z,18.85
2019-01-20T06:02:59.010Z,16.05
2019-01-20T06:05:27.474Z,17.73
2019-01-20T06:07:55.954Z,16.50
2019-01-20T06:10:24.334Z,17.70
2019-01-20T06:12:54.587Z,18.50
2019-01-20T06:15:24.502Z,19.45
2019-01-20T06:17:52.873Z,22.67
2019-01-20T06:20:22.349Z,18.87
2019-01-20T06:22:51.540Z,19.42
2019-01-20T06:25:21.374Z,19.30
2019-01-20T06:27:50.075Z,19.05
2019-01-20T06:30:22.559Z,19.70
2019-01-20T06:32:51.170Z,19.05
2019-01-20T06:35:20.180Z,18.37
2019-01-20T06:37:48.742Z,19.25
2019-01-20T06:40:17.186Z,20.50
2019-01-20T06:42:45.969Z,19.02
2019-01-20T06:45:15.536Z,19.25
2019-01-20T06:47:44.072Z,18.65
2019-01-20T06:50:14.846Z,18.55
2019-01-20T06:52:43.656Z,21.15
2019-01-20T06:55:12.620Z,18.95
2019-01-20T06:57:42.014Z,16.65
2019-01-20T07:00:24.246Z,17.57
2019-01-20T07:02:54.145Z,17.62
2019-01-20T07:05:22.707Z,20.95
2019-01-20T07:07:51.510Z,22.82
2019-01-20T07:10:20.408Z,17.75
2019-01-20T07:12:48.863Z,20.27
2019-01-20T07:15:22.871Z,15.83
2019-01-20T07:17:52.684Z,17.52
2019-01-20T07:20:21.181Z,19.87
2019-01-20T07:22:49.706Z,18.15
2019-01-20T07:25:18.129Z,17.75
2019-01-20T07:27:46.707Z,19.48
2019-01-20T07:30:18.265Z,20.70
2019-01-20T07:32:46.636Z,21.97
2019-01-20T07:35:15.325Z,22.05
2019-01-20T07:37:43.690Z,25.68
2019-01-20T07:40:16.806Z,22.90
2019-01-20T07:42:45.166Z,21.93
2019-01-20T07:45:14.450Z,23.02
2019-01-20T07:47:43.029Z,20.85
2019-01-20T07:50:17.859Z,19.90
2019-01-20T07:52:46.348Z,18.40
2019-01-20T07:55:14.812Z,18.40
2019-01-20T07:57:43.299Z,18.15
2019-01-20T08:00:18.580Z,14.53
2019-01-20T08:02:47.061Z,10.82
2019-01-20T08:05:15.557Z,17.55
2019-01-20T08:07:44.015Z,15.55
2019-01-20T08:10:16.227Z,12.23
2019-01-20T08:12:44.587Z,17.48
2019-01-20T08:15:13.604Z,17.42
2019-01-20T08:17:41.952Z,17.05
2019-01-20T08:20:14.289Z,14.95
2019-01-20T08:22:43.646Z,14.60
2019-01-20T08:25:14.031Z,12.28
2019-01-20T08:27:42.616Z,12.45
2019-01-20T08:30:14.691Z,15.65
2019-01-20T08:32:43.101Z,13.20
2019-01-20T08:35:12.690Z,12.30
2019-01-20T08:37:41.258Z,15.72
2019-01-20T08:40:13.710Z,17.85
2019-01-20T08:42:42.479Z,16.05
2019-01-20T08:45:20.328Z,14.55
2019-01-20T08:48:01.080Z,12.90
2019-01-20T08:50:29.648Z,12.75
2019-01-20T08:52:58.011Z,19.15
2019-01-20T08:55:26.420Z,17.07
2019-01-20T08:57:54.865Z,13.10
2019-01-20T09:00:29.983Z,13.35
2019-01-20T09:02:58.355Z,13.65
2019-01-20T09:05:26.906Z,15.25
2019-01-20T09:07:55.288Z,17.40
2019-01-20T09:10:26.172Z,19.07
2019-01-20T09:12:56.579Z,19.75
2019-01-20T09:15:25.042Z,14.40
2019-01-20T09:17:53.418Z,15.53
2019-01-20T09:20:23.188Z,14.33
2019-01-20T09:22:52.101Z,14.05
2019-01-20T09:25:20.986Z,14.55
2019-01-20T09:27:49.343Z,14.40
2019-01-20T09:30:19.705Z,15.75
2019-01-20T09:32:48.161Z,18.98
2019-01-20T09:35:16.638Z,18.98
2019-01-20T09:37:46.795Z,16.70
2019-01-20T09:40:16.612Z,20.25
2019-01-20T09:42:45.464Z,21.23
2019-01-20T09:45:25.086Z,13.72
2019-01-20T09:47:53.551Z,18.77
2019-01-20T09:50:22.225Z,13.38
2019-01-20T09:52:51.015Z,15.78
2019-01-20T09:55:20.405Z,14.58
2019-01-20T09:57:48.867Z,13.83
2019-01-20T10:00:19.706Z,14.60
2019-01-20T10:02:49.708Z,15.35
2019-01-20T10:05:18.119Z,14.70
2019-01-20T10:07:46.492Z,16.30
2019-01-20T10:10:16.229Z,19.10
2019-01-20T10:12:46.415Z,16.65
2019-01-20T10:15:15.063Z,15.48
2019-01-20T10:17:43.550Z,12.58
2019-01-20T10:20:18.961Z,16.93
2019-01-20T10:22:47.340Z,15.03
2019-01-20T10:25:15.877Z,17.37
2019-01-20T10:27:44.463Z,14.98
2019-01-20T10:30:23.242Z,14.73
2019-01-20T10:32:51.916Z,16.57
2019-01-20T10:35:24.287Z,15.30
2019-01-20T10:37:53.724Z,15.03
2019-01-20T10:40:23.913Z,16.48
2019-01-20T10:42:52.300Z,15.40
2019-01-20T10:45:21.667Z,17.73
2019-01-20T10:47:50.044Z,22.58
2019-01-20T10:50:19.742Z,19.67
2019-01-20T10:52:48.222Z,23.17
2019-01-20T10:55:16.956Z,14.90
2019-01-20T10:57:47.134Z,16.67
2019-01-20T11:00:29.287Z,16.63
2019-01-20T11:02:58.265Z,16.47
2019-01-20T11:05:30.492Z,18.23
2019-01-20T11:07:58.094Z,17.27
2019-01-20T11:10:26.866Z,18.80
2019-01-20T11:12:55.551Z,17.47
2019-01-20T11:15:23.985Z,19.70
2019-01-20T11:17:52.989Z,16.50
2019-01-20T11:20:22.165Z,18.50
2019-01-20T11:22:51.011Z,15.10
2019-01-20T11:25:24.093Z,20.83
2019-01-20T11:27:52.853Z,18.33
2019-01-20T11:30:21.341Z,19.53
2019-01-20T11:32:50.210Z,18.53
2019-01-20T11:35:20.386Z,17.27
2019-01-20T11:37:49.027Z,16.87
2019-01-20T11:40:17.788Z,16.30
2019-01-20T11:42:47.998Z,16.87
2019-01-20T11:45:20.410Z,18.53
2019-01-20T11:47:49.030Z,17.87
2019-01-20T11:50:17.996Z,17.47
2019-01-20T11:52:46.564Z,16.37
2019-01-20T11:55:17.205Z,18.87
2019-01-20T11:57:45.867Z,16.77
2019-01-20T12:00:30.162Z,16.73
2019-01-20T12:02:58.827Z,16.30
2019-01-20T12:05:27.652Z,16.67
2019-01-20T12:07:56.304Z,17.70
2019-01-20T12:10:24.979Z,17.73
2019-01-20T12:12:58.670Z,19.47
2019-01-20T12:15:27.261Z,16.13
2019-01-20T12:17:56.394Z,18.23
2019-01-20T12:20:25.138Z,16.20
2019-01-20T12:22:53.889Z,16.77
2019-01-20T12:25:22.585Z,16.60
2019-01-20T12:27:51.050Z,16.37
2019-01-20T12:30:22.677Z,17.40
2019-01-20T12:32:51.053Z,14.97
2019-01-20T12:35:19.530Z,16.40
2019-01-20T12:37:47.910Z,18.57
2019-01-20T12:40:21.601Z,18.37
2019-01-20T12:42:50.080Z,18.37
2019-01-20T12:45:18.547Z,18.30
2019-01-20T12:47:48.019Z,15.97
2019-01-20T12:50:17.050Z,17.10
2019-01-20T12:52:45.677Z,15.90
2019-01-20T12:55:14.839Z,15.63
2019-01-20T12:57:43.228Z,15.77
2019-01-20T13:00:15.819Z,17.90
2019-01-20T13:02:45.287Z,17.60
2019-01-20T13:05:13.876Z,17.10
2019-01-20T13:07:43.279Z,17.17
2019-01-20T13:10:13.855Z,17.53
2019-01-20T13:12:42.228Z,15.40
2019-01-20T13:15:14.887Z,16.97
2019-01-20T13:17:43.400Z,15.80
2019-01-20T13:20:18.255Z,15.80
2019-01-20T13:22:47.198Z,18.10
2019-01-20T13:25:19.666Z,18.10
2019-01-20T13:27:48.465Z,16.20
2019-01-20T13:30:20.003Z,16.53
2019-01-20T13:32:48.503Z,16.70
2019-01-20T13:35:18.812Z,15.63
2019-01-20T13:38:03.798Z,15.10
2019-01-20T13:41:00.972Z,16.30
2019-01-20T13:43:29.631Z,16.30
2019-01-20T13:45:58.089Z,15.57
2019-01-20T13:48:26.485Z,15.47
2019-01-20T13:50:55.952Z,15.57
2019-01-20T13:53:24.378Z,16.60
2019-01-20T13:55:53.069Z,16.57
2019-01-20T13:58:21.452Z,17.37
2019-01-20T14:00:49.911Z,16.80
2019-01-20T14:03:18.303Z,17.13
2019-01-20T14:05:46.773Z,16.90
2019-01-20T14:08:15.280Z,15.47
2019-01-20T14:10:43.643Z,14.50
2019-01-20T14:13:12.124Z,14.57
2019-01-20T14:15:41.392Z,15.10
2019-01-20T14:18:09.762Z,14.60
2019-01-20T14:20:38.480Z,14.07
2019-01-20T14:23:06.969Z,17.70
2019-01-20T14:25:35.556Z,15.53
2019-01-20T14:28:04.245Z,13.00
2019-01-20T14:30:32.937Z,18.07
2019-01-20T14:33:01.310Z,19.10
2019-01-20T14:35:30.485Z,17.20
2019-01-20T14:37:58.961Z,13.93
2019-01-20T14:40:27.436Z,13.97
2019-01-20T14:42:56.230Z,17.80
2019-01-20T14:45:24.628Z,16.93
2019-01-20T14:47:53.155Z,15.97
2019-01-20T14:50:24.023Z,15.77
2019-01-20T14:52:52.564Z,15.93
2019-01-20T14:55:21.646Z,14.93
2019-01-20T14:57:50.279Z,16.73
2019-01-20T15:00:31.370Z,16.32
2019-01-20T15:02:59.750Z,16.15
2019-01-20T15:05:28.223Z,15.65
2019-01-20T15:07:56.755Z,15.83
2019-01-20T15:10:25.664Z,15.95
2019-01-20T15:12:54.130Z,20.32
2019-01-20T15:15:28.701Z,19.85
2019-01-20T15:17:57.170Z,20.25
2019-01-20T15:20:25.601Z,15.50
2019-01-20T15:22:53.972Z,18.55
2019-01-20T15:25:23.380Z,15.25
2019-01-20T15:27:51.949Z,16.77
2019-01-20T15:30:25.591Z,21.50
2019-01-20T15:32:55.624Z,20.75
2019-01-20T15:35:24.430Z,19.32
2019-01-20T15:37:53.117Z,19.55
2019-01-20T15:40:22.663Z,19.73
2019-01-20T15:42:51.124Z,19.15
2019-01-20T15:45:20.420Z,17.23
2019-01-20T15:47:49.564Z,19.80
2019-01-20T15:50:21.902Z,19.07
2019-01-20T15:52:50.570Z,17.57
2019-01-20T15:55:19.399Z,18.62
2019-01-20T15:57:47.778Z,18.75
2019-01-20T16:00:29.545Z,19.92
2019-01-20T16:02:58.403Z,21.50
2019-01-20T16:05:28.637Z,27.48
2019-01-20T16:07:57.493Z,31.85
2019-01-20T16:10:26.148Z,37.28
2019-01-20T16:12:54.852Z,35.45
2019-01-20T16:15:35.305Z,33.88
2019-01-20T16:18:04.645Z,27.17
2019-01-20T16:20:33.514Z,27.60
2019-01-20T16:23:04.393Z,29.87
2019-01-20T16:25:35.695Z,32.25
2019-01-20T16:28:05.564Z,34.78
2019-01-20T16:30:37.228Z,33.70
2019-01-20T16:33:05.597Z,34.23
2019-01-20T16:35:34.154Z,38.33
2019-01-20T16:38:04.718Z,43.17
2019-01-20T16:40:33.384Z,46.33
2019-01-20T16:43:01.779Z,46.28
2019-01-20T16:45:42.191Z,37.53
2019-01-20T16:48:07.768Z,40.15
2019-01-20T16:50:37.369Z,37.55
2019-01-20T16:53:06.183Z,39.95
2019-01-20T16:55:34.871Z,36.98
2019-01-20T16:58:03.588Z,32.30
2019-01-20T17:00:34.997Z,35.17
2019-01-20T17:03:04.190Z,29.60
2019-01-20T17:05:33.182Z,30.57
2019-01-20T17:08:01.680Z,27.45
2019-01-20T17:10:33.493Z,30.27
2019-01-20T17:13:02.341Z,29.32
2019-01-20T17:15:39.781Z,30.70
2019-01-20T17:18:09.611Z,27.45
2019-01-20T17:20:38.505Z,28.98
2019-01-20T17:23:07.429Z,31.15
2019-01-20T17:25:35.867Z,33.02
2019-01-20T17:28:04.480Z,30.50
2019-01-20T17:30:33.133Z,37.63
2019-01-20T17:33:01.850Z,34.78
2019-01-20T17:35:30.821Z,32.78
2019-01-20T17:37:59.205Z,37.00
2019-01-20T17:40:28.148Z,35.15
2019-01-20T17:42:56.933Z,37.53
2019-01-20T17:45:34.890Z,43.52
2019-01-20T17:48:03.570Z,43.63
2019-01-20T17:50:35.378Z,42.55
2019-01-20T17:53:06.866Z,37.33
2019-01-20T17:55:37.521Z,38.50
2019-01-20T17:58:06.596Z,39.80
2019-01-20T18:00:43.940Z,37.08
2019-01-20T18:03:15.020Z,35.00
2019-01-20T18:05:45.611Z,31.15
2019-01-20T18:08:20.276Z,38.85
2019-01-20T18:10:48.943Z,34.98
2019-01-20T18:13:17.480Z,35.65
2019-01-20T18:15:46.264Z,29.92
2019-01-20T18:18:14.858Z,32.28
2019-01-20T18:20:44.875Z,33.23
2019-01-20T18:23:13.638Z,34.88
2019-01-20T18:25:43.192Z,31.55
2019-01-20T18:28:12.313Z,34.53
2019-01-20T18:30:40.798Z,34.48
2019-01-20T18:33:09.302Z,39.05
2019-01-20T18:35:38.069Z,32.50
2019-01-20T18:38:06.895Z,34.45
2019-01-20T18:40:36.300Z,38.15
2019-01-20T18:43:05.006Z,39.38
2019-01-20T18:45:33.505Z,32.45
2019-01-20T18:48:04.327Z,35.98
2019-01-20T18:50:35.095Z,36.48
2019-01-20T18:53:05.314Z,32.15
2019-01-20T18:55:35.645Z,39.58
2019-01-20T18:58:05.553Z,35.25
2019-01-20T19:00:47.312Z,41.10
2019-01-20T19:03:17.257Z,38.73
2019-01-20T19:05:45.857Z,38.48
2019-01-20T19:08:14.575Z,31.15
2019-01-20T19:10:44.073Z,41.40
2019-01-20T19:13:13.009Z,39.53
2019-01-20T19:15:41.748Z,34.40
2019-01-20T19:18:10.432Z,36.08
2019-01-20T19:20:39.126Z,33.83
2019-01-20T19:23:08.394Z,41.02
2019-01-20T19:25:37.266Z,38.63
2019-01-20T19:28:05.995Z,36.40
2019-01-20T19:30:34.841Z,33.45
2019-01-20T19:33:03.913Z,35.63
2019-01-20T19:35:32.440Z,37.40
2019-01-20T19:38:01.096Z,38.88
2019-01-20T19:40:31.187Z,42.00
2019-01-20T19:43:00.242Z,35.98
2019-01-20T19:45:39.254Z,35.05
2019-01-20T19:48:15.709Z,39.33
2019-01-20T19:50:38.674Z,30.60
2019-01-20T19:53:07.099Z,30.75
2019-01-20T19:55:35.622Z,35.43
2019-01-20T19:58:04.754Z,32.33
2019-01-20T20:00:34.921Z,34.95
2019-01-20T20:03:04.094Z,37.60
2019-01-20T20:05:34.490Z,33.58
2019-01-20T20:08:03.759Z,35.20
2019-01-20T20:10:32.405Z,35.25
2019-01-20T20:13:01.584Z,33.25
2019-01-20T20:15:32.080Z,37.15
2019-01-20T20:18:00.689Z,37.65
2019-01-20T20:20:30.585Z,32.65
2019-01-20T20:22:59.505Z,29.15
2019-01-20T20:25:28.449Z,33.65
2019-01-20T20:27:59.623Z,33.30
2019-01-20T20:30:35.098Z,33.95
2019-01-20T20:33:04.667Z,28.12
2019-01-20T20:35:33.398Z,30.85
2019-01-20T20:38:02.222Z,29.27
2019-01-20T20:40:32.035Z,33.73
2019-01-20T20:43:02.759Z,30.32
2019-01-20T20:45:36.909Z,36.17
2019-01-20T20:48:05.635Z,36.90
2019-01-20T20:50:34.389Z,34.38
2019-01-20T20:53:03.272Z,31.07
2019-01-20T20:55:32.075Z,33.33
2019-01-20T20:58:00.565Z,30.43
2019-01-20T21:00:37.535Z,29.57
2019-01-20T21:03:33.957Z,32.10
2019-01-20T21:06:02.435Z,32.88
2019-01-20T21:08:30.847Z,35.90
2019-01-20T21:10:59.259Z,36.10
2019-01-20T21:13:28.069Z,31.97
2019-01-20T21:15:57.681Z,32.50
2019-01-20T21:18:26.432Z,36.75
2019-01-20T21:20:55.276Z,31.07
2019-01-20T21:23:23.756Z,38.80
2019-01-20T21:25:52.154Z,37.88
2019-01-20T21:28:20.526Z,37.50
2019-01-20T21:30:49.610Z,38.00
2019-01-20T21:33:18.295Z,30.65
2019-01-20T21:35:47.798Z,33.63
2019-01-20T21:38:16.386Z,34.27
2019-01-20T21:40:46.567Z,32.08
2019-01-20T21:43:14.930Z,42.98
2019-01-20T21:45:43.493Z,31.25
2019-01-20T21:48:11.843Z,32.73
2019-01-20T21:50:40.225Z,47.67
2019-01-20T21:53:08.710Z,41.58
2019-01-20T21:55:37.297Z,36.60
2019-01-20T21:58:05.662Z,32.58
2019-01-20T22:00:34.138Z,34.43
2019-01-20T22:03:02.499Z,39.67
2019-01-20T22:05:31.123Z,30.15
2019-01-20T22:07:59.577Z,36.48
2019-01-20T22:10:28.663Z,37.38
2019-01-20T22:13:00.346Z,33.20
2019-01-20T22:15:28.842Z,30.68
2019-01-20T22:17:57.510Z,32.38
2019-01-20T22:20:26.480Z,33.58
2019-01-20T22:22:54.960Z,33.88
2019-01-20T22:25:23.364Z,32.78
2019-01-20T22:27:53.535Z,40.20
2019-01-20T22:30:31.110Z,37.30
2019-01-20T22:32:59.486Z,39.05
2019-01-20T22:35:27.857Z,38.02
2019-01-20T22:37:56.339Z,36.38
2019-01-20T22:40:26.507Z,34.38
2019-01-20T22:42:54.888Z,37.42
2019-01-20T22:45:26.088Z,38.50
2019-01-20T22:47:54.560Z,34.40
2019-01-20T22:50:22.999Z,37.00
2019-01-20T22:52:51.504Z,37.10
2019-01-20T22:55:20.269Z,33.95
2019-01-20T22:57:48.759Z,39.50
2019-01-20T23:00:50.732Z,34.83
2019-01-20T23:03:19.347Z,34.23
2019-01-20T23:05:50.770Z,34.00
2019-01-20T23:08:19.303Z,35.75
2019-01-20T23:10:47.731Z,33.75
2019-01-20T23:13:16.156Z,34.50
2019-01-20T23:15:45.321Z,32.30
2019-01-20T23:18:13.799Z,34.88
2019-01-20T23:20:42.256Z,32.05
2019-01-20T23:23:10.631Z,36.48
2019-01-20T23:25:39.089Z,34.73
2019-01-20T23:28:07.564Z,32.83
2019-01-20T23:30:36.232Z,37.15
2019-01-20T23:33:04.713Z,31.10
2019-01-20T23:35:33.259Z,32.50
2019-01-20T23:38:01.868Z,35.00
2019-01-20T23:40:30.257Z,34.75
2019-01-20T23:42:58.729Z,33.60
2019-01-20T23:45:27.180Z,37.75
2019-01-20T23:47:55.747Z,36.70
2019-01-20T23:50:26.024Z,29.45
2019-01-20T23:52:54.403Z,32.17
2019-01-20T23:55:24.132Z,34.83
2019-01-20T23:57:52.512Z,33.05
